Latest Weather Observations for Broome Port

IDW60801

Issued at 6:35 pm WST Wednesday 20 August 2014 (issued every 30 minutes, with the page automatically refreshed every 10 minutes)

About weather observations | Map of weather stations | Latest weather observations for WA | Other Formats
Station Details ID: 003102 Name: BROOME NTC AWS Lat: -18.00 Lon: 122.22 Height: 0.0 m
Data from the previous 72 hours. | See also: Recent months for locations in Western Australia
Date/Time
WST
Temp
°C
App
Temp
°C
Dew
Point
Rel
Hum
%
Delta-T
°C
Wind Press
QNH
hPa
Press
MSL
hPa
Rain
since 9 am
mm
Dir
 
Spd
km/h
Gust
km/h
Spd
kts
Gust
kts
20/06:30pm 22.3 - - - - W 13 17 7 9 1013.0 1013.0 -
20/06:00pm 21.7 - - - - NW 11 15 6 8 1012.9 1012.9 -
20/05:30pm 21.8 - - - - NW 13 15 7 8 1012.8 1012.8 -
20/05:00pm 21.9 - - - - WSW 22 24 12 13 1012.5 1012.5 -
20/04:30pm 22.1 - - - - WSW 24 28 13 15 1012.3 1012.3 -
20/04:00pm 22.6 - - - - WSW 26 32 14 17 1012.2 1012.2 -
20/03:30pm 23.3 - - - - WSW 24 30 13 16 1012.1 1012.1 -
20/03:00pm 24.5 - - - - WSW 22 26 12 14 1012.2 1012.2 -
20/02:30pm 23.9 - - - - WSW 20 24 11 13 1012.4 1012.4 -
20/02:00pm 25.3 - - - - WSW 20 24 11 13 1012.6 1012.6 -
20/01:30pm 26.4 - - - - WSW 19 20 10 11 1012.9 1012.9 -
20/01:00pm 26.4 - - - - SW 11 13 6 7 1013.4 1013.4 -
20/12:30pm 27.0 - - - - S 6 7 3 4 1014.1 1014.1 -
20/12:00pm 27.2 - - - - SE 7 9 4 5 1014.5 1014.5 -
20/11:30am 25.5 - - - - ESE 7 9 4 5 1015.0 1015.0 -
20/11:00am 24.0 - - - - ESE 7 11 4 6 1015.5 1015.5 -
20/10:30am 22.0 - - - - SE 7 9 4 5 1016.0 1016.0 -
20/10:00am 19.7 - - - - ESE 7 9 4 5 1016.3 1016.3 -
20/09:30am 19.4 - - - - SSE 11 13 6 7 1016.4 1016.4 -
20/09:00am 19.5 - - - - S 13 15 7 8 1016.5 1016.5 -
20/08:30am 19.1 - - - - SSE 13 15 7 8 1016.2 - -
20/08:00am 18.9 - - - - SSE 15 17 8 9 1016.2 1016.2 -
20/07:30am 19.4 - - - - SSE 13 17 7 9 1015.8 - -
20/07:00am 18.9 - - - - SSE 13 15 7 8 1015.6 1015.6 -
20/06:30am 18.2 - - - - SSE 13 15 7 8 1015.5 - -
20/06:00am 18.5 - - - - S 15 17 8 9 1015.3 1015.3 -
20/05:30am 18.5 - - - - S 15 17 8 9 1014.9 - -
20/05:00am 18.3 - - - - SSW 11 13 6 7 1014.7 1014.7 -
20/04:30am 19.0 - - - - WSW 7 9 4 5 1014.4 - -
20/04:00am 19.0 - - - - SW 7 9 4 5 1014.1 1014.1 -
20/03:30am 19.2 - - - - SW 6 6 3 3 1014.2 - -
20/03:00am 19.8 - - - - WNW 4 6 2 3 1014.3 1014.3 -
20/02:30am 19.8 - - - - NNW 4 7 2 4 1014.4 - -
20/02:00am 19.2 - - - - N 6 9 3 5 1014.5 1014.5 -
20/01:30am 19.0 - - - - N 6 9 3 5 1014.8 - -
20/01:00am 19.1 - - - - NNE 4 7 2 4 1015.0 1015.0 -
20/12:30am 19.2 - - - - NNW 7 9 4 5 1015.1 - -
20/12:00am 20.3 - - - - N 15 15 8 8 1015.3 1015.3 -
 
Date/Time
WST
Temp
°C
App
Temp
°C
Dew
Point
Rel
Hum
%
Delta-T
°C
Wind Press
QNH
hPa
Press
MSL
hPa
Rain
since 9 am
mm
Dir
 
Spd
km/h
Gust
km/h
Spd
kts
Gust
kts
19/11:30pm 19.5 - - - - N 11 15 6 8 1015.6 - -
19/11:00pm 19.1 - - - - NNE 9 13 5 7 1015.8 1015.8 -
19/10:30pm 20.4 - - - - N 9 11 5 6 1016.0 - -
19/10:00pm 20.2 - - - - NNW 4 6 2 3 1015.9 1015.9 -
19/09:30pm 20.4 - - - - N 7 7 4 4 1015.9 - -
19/09:00pm 20.7 - - - - NW 6 7 3 4 1015.8 1015.8 -
19/08:30pm 21.2 - - - - N 7 11 4 6 1015.6 - -
19/08:00pm 20.9 - - - - NNW 7 9 4 5 1015.4 1015.4 -
19/07:30pm 21.3 - - - - NNW 7 9 4 5 1015.1 - -
19/07:00pm 21.4 - - - - NNW 7 9 4 5 1014.6 1014.6 -
19/06:30pm 21.6 - - - - W 9 13 5 7 1014.1 - -
19/06:00pm 21.7 - - - - W 11 17 6 9 1013.9 1013.9 -
19/05:30pm 21.9 - - - - W 17 20 9 11 1013.5 - -
19/05:00pm 22.6 - - - - WNW 17 22 9 12 1013.5 1013.5 -
19/04:30pm 23.3 - - - - WNW 22 26 12 14 1013.2 - -
19/04:00pm 24.2 - - - - WNW 20 24 11 13 1013.1 1013.1 -
19/03:30pm 25.0 - - - - WNW 20 22 11 12 1013.0 - -
19/03:00pm 25.2 - - - - W 17 19 9 10 1013.3 1013.3 -
19/02:30pm 25.1 - - - - W 17 19 9 10 1013.4 - -
19/02:00pm 25.7 - - - - W 11 15 6 8 1013.3 1013.3 -
19/01:30pm 26.9 - - - - SSW 7 9 4 5 1013.6 - -
19/01:00pm 27.2 - - - - S 7 7 4 4 1014.4 1014.4 -
19/12:30pm 26.8 - - - - SE 7 7 4 4 1014.7 - -
19/12:00pm 26.6 - - - - E 13 13 7 7 1015.3 1015.3 -
19/11:30am 24.7 - - - - ESE 11 15 6 8 1015.9 - -
19/11:00am 22.9 - - - - SE 11 13 6 7 1016.4 1016.4 -
19/10:30am 21.3 - - - - SE 13 15 7 8 1016.8 - -
19/10:00am 18.7 - - - - SE 13 15 7 8 1017.3 1017.3 -
19/09:30am 17.7 - - - - SE 15 17 8 9 1017.5 - -
19/09:00am 17.2 - - - - ESE 7 11 4 6 1017.5 1017.5 -
19/08:30am 17.3 - - - - ESE 13 15 7 8 1017.5 - -
19/08:00am 16.9 - - - - E 11 15 6 8 1017.4 1017.4 -
19/07:30am 16.5 - - - - E 13 15 7 8 1017.2 - -
19/07:00am 16.6 - - - - E 15 17 8 9 1016.9 1016.9 -
19/06:30am 16.9 - - - - E 9 11 5 6 1016.3 - -
19/06:00am 16.2 - - - - E 9 13 5 7 1016.2 1016.2 -
19/05:30am 16.0 - - - - E 13 15 7 8 1016.0 - -
19/05:00am 17.2 - - - - ESE 11 15 6 8 1015.9 1015.9 -
19/04:30am 18.5 - - - - SE 7 9 4 5 1015.8 - -
19/04:00am 19.4 - - - - SSW 6 7 3 4 1015.7 1015.7 -
19/03:30am 19.7 - - - - SSW 9 11 5 6 1015.8 - -
19/03:00am 20.3 - - - - WSW 17 19 9 10 1015.5 1015.5 -
19/02:30am 20.2 - - - - W 15 20 8 11 1015.6 - -
19/02:00am 21.1 - - - - W 17 20 9 11 1015.8 1015.8 -
19/01:30am 20.6 - - - - WNW 15 17 8 9 1016.0 - -
19/01:00am 21.5 - - - - W 19 20 10 11 1016.2 1016.2 -
19/12:30am 21.1 - - - - W 17 19 9 10 1016.6 - -
19/12:00am 21.2 - - - - NNW 9 13 5 7 1016.8 1016.8 -
 
Date/Time
WST
Temp
°C
App
Temp
°C
Dew
Point
Rel
Hum
%
Delta-T
°C
Wind Press
QNH
hPa
Press
MSL
hPa
Rain
since 9 am
mm
Dir
 
Spd
km/h
Gust
km/h
Spd
kts
Gust
kts
18/11:30pm 21.4 - - - - NW 9 11 5 6 1017.1 - -
18/11:00pm 20.9 - - - - NNW 9 9 5 5 1017.2 1017.2 -
18/10:30pm 22.4 - - - - NW 7 9 4 5 1017.2 - -
18/10:00pm 21.2 - - - - NNW 7 9 4 5 1017.1 1017.1 -
18/09:30pm 22.7 - - - - NW 9 9 5 5 1016.9 - -
18/09:00pm 22.7 - - - - WNW 11 13 6 7 1016.9 1016.9 -
18/08:30pm 22.3 - - - - WNW 13 15 7 8 1016.7 - -
18/08:00pm 22.3 - - - - NW 13 15 7 8 1016.5 1016.5 -
18/07:30pm 22.0 - - - - NW 13 17 7 9 1016.2 - -
18/07:00pm 21.6 - - - - NNW 11 17 6 9 1015.6 1015.6 -
18/06:30pm 21.9 - - - - NNW 15 20 8 11 1015.3 - -
18/06:00pm 23.2 - - - - NNW 17 20 9 11 1014.8 1014.8 -
18/05:30pm 22.9 - - - - WNW 22 28 12 15 1014.4 - -
18/05:00pm 23.7 - - - - W 20 24 11 13 1014.1 1014.1 -
18/04:30pm 25.1 - - - - W 20 24 11 13 1013.8 - -
18/04:00pm 26.0 - - - - W 19 22 10 12 1013.6 1013.6 -
18/03:30pm 26.0 - - - - W 20 22 11 12 1013.5 - -
18/03:00pm 24.7 - - - - WSW 20 22 11 12 1013.6 1013.6 -
18/02:30pm 25.6 - - - - SW 22 24 12 13 1013.8 - -
18/02:00pm 26.2 - - - - SW 19 20 10 11 1014.1 1014.1 -
18/01:30pm 25.8 - - - - SSW 15 19 8 10 1014.3 - -
18/01:00pm 26.1 - - - - S 13 15 7 8 1014.8 1014.8 -
18/12:30pm 25.7 - - - - S 11 15 6 8 1015.2 - -
18/12:00pm 25.9 - - - - SE 15 17 8 9 1015.7 1015.7 -
18/11:30am 25.6 - - - - ESE 20 22 11 12 1016.2 - -
18/11:00am 24.1 - - - - ESE 22 24 12 13 1016.6 1016.6 -
18/10:30am 24.0 - - - - ESE 19 24 10 13 1017.1 - -
18/10:00am 21.8 - - - - ESE 17 19 9 10 1017.4 1017.4 -
18/09:30am 19.1 - - - - E 9 11 5 6 1017.7 - -
18/09:00am 19.0 - - - - ESE 15 17 8 9 1017.9 1017.9 -
18/08:30am 18.2 - - - - SE 17 20 9 11 1017.9 - -
18/08:00am 17.2 - - - - SE 15 19 8 10 1017.8 1017.8 -
18/07:30am 17.0 - - - - SE 22 26 12 14 1017.6 - -
18/07:00am 16.8 - - - - ESE 22 26 12 14 1017.6 1017.6 -
18/06:30am 16.7 - - - - ESE 19 20 10 11 1017.1 - -
18/06:00am 16.9 - - - - ESE 19 22 10 12 1016.7 1016.7 -
18/05:30am 17.0 - - - - ESE 20 22 11 12 1016.5 - -
18/05:00am 17.4 - - - - ESE 20 24 11 13 1016.1 1016.1 -
18/04:30am 17.6 - - - - SE 24 28 13 15 1016.1 - -
18/04:00am 18.1 - - - - ESE 22 26 12 14 1016.0 1016.0 -
18/03:30am 18.3 - - - - ESE 17 19 9 10 1016.0 - -
18/03:00am 18.5 - - - - ESE 15 19 8 10 1016.0 1016.0 -
18/02:30am 18.4 - - - - ESE 11 13 6 7 1016.1 - -
18/02:00am 18.5 - - - - SE 9 11 5 6 1016.2 1016.2 -
18/01:30am 18.8 - - - - ESE 11 13 6 7 1016.3 - -
18/01:00am 19.1 - - - - ESE 13 13 7 7 1016.4 1016.4 -
18/12:30am 19.4 - - - - ESE 13 15 7 8 1016.5 - -
18/12:00am 19.5 - - - - ESE 9 13 5 7 1016.7 1016.7 -
 
Date/Time
WST
Temp
°C
App
Temp
°C
Dew
Point
Rel
Hum
%
Delta-T
°C
Wind Press
QNH
hPa
Press
MSL
hPa
Rain
since 9 am
mm
Dir
 
Spd
km/h
Gust
km/h
Spd
kts
Gust
kts
17/11:30pm 19.4 - - - - ESE 7 11 4 6 1016.8 - -
17/11:00pm 20.7 - - - - SE 9 11 5 6 1016.9 1016.9 -
17/10:30pm 22.4 - - - - SSE 17 19 9 10 1016.9 - -
17/10:00pm 20.4 - - - - S 13 17 7 9 1017.0 1017.0 -
17/09:30pm 20.3 - - - - SSW 13 15 7 8 1016.9 - -
17/09:00pm 20.5 - - - - SW 11 13 6 7 1016.9 1016.9 -
17/08:30pm 20.9 - - - - SW 17 20 9 11 1016.8 - -
17/08:00pm 20.8 - - - - SW 15 17 8 9 1016.5 1016.5 -
17/07:30pm 20.7 - - - - SW 17 19 9 10 1016.2 - -
17/07:00pm 20.8 - - - - SW 15 17 8 9 1015.9 1015.9 -

Other Formats:

Comma delimited format used in spreadsheet applications
http://www.bom.gov.au/fwo/IDW60801/IDW60801.95202.axf

JavaScript Object Notation format (JSON) in row-major order
http://www.bom.gov.au/fwo/IDW60801/IDW60801.95202.json